sensor_id;sensor_type;location;lat;lon;timestamp;temperature;humidity
11122;DHT22;5615;49.304;10.576;2023-02-28T00:00:51;-3.70;99.90
11122;DHT22;5615;49.304;10.576;2023-02-28T00:03:17;-3.60;99.90
11122;DHT22;5615;49.304;10.576;2023-02-28T00:05:44;-3.70;99.90
11122;DHT22;5615;49.304;10.576;2023-02-28T00:08:10;-3.60;99.90
11122;DHT22;5615;49.304;10.576;2023-02-28T00:10:38;-3.60;99.90
11122;DHT22;5615;49.304;10.576;2023-02-28T00:13:06;-3.60;99.90
11122;DHT22;5615;49.304;10.576;2023-02-28T00:15:34;-3.70;99.90
11122;DHT22;5615;49.304;10.576;2023-02-28T00:18:01;-3.60;99.90
11122;DHT22;5615;49.304;10.576;2023-02-28T00:20:28;-3.70;99.90
11122;DHT22;5615;49.304;10.576;2023-02-28T00:22:55;-3.60;99.90
11122;DHT22;5615;49.304;10.576;2023-02-28T00:25:24;-3.70;99.90
11122;DHT22;5615;49.304;10.576;2023-02-28T00:27:51;-3.70;99.90
11122;DHT22;5615;49.304;10.576;2023-02-28T00:30:19;-3.70;99.90
11122;DHT22;5615;49.304;10.576;2023-02-28T00:32:48;-3.70;99.90
11122;DHT22;5615;49.304;10.576;2023-02-28T00:35:14;-3.70;99.90
11122;DHT22;5615;49.304;10.576;2023-02-28T00:37:42;-3.70;99.90
11122;DHT22;5615;49.304;10.576;2023-02-28T00:40:10;-3.70;99.90
11122;DHT22;5615;49.304;10.576;2023-02-28T00:42:37;-3.70;99.90
11122;DHT22;5615;49.304;10.576;2023-02-28T00:45:05;-3.70;99.90
11122;DHT22;5615;49.304;10.576;2023-02-28T00:47:33;-3.70;99.90
11122;DHT22;5615;49.304;10.576;2023-02-28T00:50:02;-3.70;99.90
11122;DHT22;5615;49.304;10.576;2023-02-28T00:52:28;-3.80;99.90
11122;DHT22;5615;49.304;10.576;2023-02-28T00:54:55;-3.80;99.90
11122;DHT22;5615;49.304;10.576;2023-02-28T00:57:22;-3.70;99.90
11122;DHT22;5615;49.304;10.576;2023-02-28T00:59:49;-3.70;99.90
11122;DHT22;5615;49.304;10.576;2023-02-28T01:02:15;-3.70;99.90
11122;DHT22;5615;49.304;10.576;2023-02-28T01:04:43;-3.70;99.90
11122;DHT22;5615;49.304;10.576;2023-02-28T01:07:11;-3.80;99.90
11122;DHT22;5615;49.304;10.576;2023-02-28T01:09:39;-3.70;99.90
11122;DHT22;5615;49.304;10.576;2023-02-28T01:12:07;-3.80;99.90
11122;DHT22;5615;49.304;10.576;2023-02-28T01:14:34;-3.70;99.90
11122;DHT22;5615;49.304;10.576;2023-02-28T01:17:01;-3.80;99.90
11122;DHT22;5615;49.304;10.576;2023-02-28T01:19:28;-3.80;99.90
11122;DHT22;5615;49.304;10.576;2023-02-28T01:21:54;-3.80;99.90
11122;DHT22;5615;49.304;10.576;2023-02-28T01:24:22;-3.70;99.90
11122;DHT22;5615;49.304;10.576;2023-02-28T01:26:49;-3.70;99.90
11122;DHT22;5615;49.304;10.576;2023-02-28T01:29:15;-3.70;99.90
11122;DHT22;5615;49.304;10.576;2023-02-28T01:31:42;-3.70;99.90
11122;DHT22;5615;49.304;10.576;2023-02-28T01:34:08;-3.70;99.90
11122;DHT22;5615;49.304;10.576;2023-02-28T01:36:35;-3.70;99.90
11122;DHT22;5615;49.304;10.576;2023-02-28T01:39:02;-3.70;99.90
11122;DHT22;5615;49.304;10.576;2023-02-28T01:41:32;-3.80;99.90
11122;DHT22;5615;49.304;10.576;2023-02-28T01:44:02;-3.70;99.90
11122;DHT22;5615;49.304;10.576;2023-02-28T01:46:30;-3.80;99.90
11122;DHT22;5615;49.304;10.576;2023-02-28T01:49:02;-3.70;99.90
11122;DHT22;5615;49.304;10.576;2023-02-28T01:51:33;-3.70;99.90
11122;DHT22;5615;49.304;10.576;2023-02-28T01:54:05;-3.80;99.90
11122;DHT22;5615;49.304;10.576;2023-02-28T01:56:43;-3.80;99.90
11122;DHT22;5615;49.304;10.576;2023-02-28T01:59:12;-3.90;99.90
11122;DHT22;5615;49.304;10.576;2023-02-28T02:01:40;-3.90;99.90
11122;DHT22;5615;49.304;10.576;2023-02-28T02:04:07;-3.90;99.90
11122;DHT22;5615;49.304;10.576;2023-02-28T02:06:38;-4.00;99.90
11122;DHT22;5615;49.304;10.576;2023-02-28T02:09:05;-3.90;99.90
11122;DHT22;5615;49.304;10.576;2023-02-28T02:11:33;-4.00;99.90
11122;DHT22;5615;49.304;10.576;2023-02-28T02:14:24;-4.00;99.90
11122;DHT22;5615;49.304;10.576;2023-02-28T02:17:04;-4.00;99.90
11122;DHT22;5615;49.304;10.576;2023-02-28T02:23:07;-4.10;99.90
11122;DHT22;5615;49.304;10.576;2023-02-28T02:25:43;-4.10;99.90
11122;DHT22;5615;49.304;10.576;2023-02-28T02:31:56;-4.20;99.90
11122;DHT22;5615;49.304;10.576;2023-02-28T02:34:52;-4.30;99.90
11122;DHT22;5615;49.304;10.576;2023-02-28T02:37:27;-4.30;99.90
11122;DHT22;5615;49.304;10.576;2023-02-28T02:40:02;-4.30;99.90
11122;DHT22;5615;49.304;10.576;2023-02-28T02:42:35;-4.30;99.90
11122;DHT22;5615;49.304;10.576;2023-02-28T02:45:06;-4.50;99.90
11122;DHT22;5615;49.304;10.576;2023-02-28T02:47:35;-4.50;99.90
11122;DHT22;5615;49.304;10.576;2023-02-28T02:50:06;-4.50;99.90
11122;DHT22;5615;49.304;10.576;2023-02-28T02:52:37;-4.50;99.90
11122;DHT22;5615;49.304;10.576;2023-02-28T02:55:06;-4.40;99.90
11122;DHT22;5615;49.304;10.576;2023-02-28T02:57:38;-4.40;99.90
11122;DHT22;5615;49.304;10.576;2023-02-28T03:00:09;-4.40;99.90
11122;DHT22;5615;49.304;10.576;2023-02-28T03:02:37;-4.40;99.90
11122;DHT22;5615;49.304;10.576;2023-02-28T03:05:11;-4.50;99.90
11122;DHT22;5615;49.304;10.576;2023-02-28T03:07:39;-4.50;99.90
11122;DHT22;5615;49.304;10.576;2023-02-28T03:10:27;-4.50;99.90
11122;DHT22;5615;49.304;10.576;2023-02-28T03:13:00;-4.50;99.90
11122;DHT22;5615;49.304;10.576;2023-02-28T03:15:36;-4.50;99.90
11122;DHT22;5615;49.304;10.576;2023-02-28T03:18:09;-4.50;99.90
11122;DHT22;5615;49.304;10.576;2023-02-28T03:20:43;-4.50;99.90
11122;DHT22;5615;49.304;10.576;2023-02-28T03:23:16;-4.50;99.90
11122;DHT22;5615;49.304;10.576;2023-02-28T03:25:54;-4.60;99.90
11122;DHT22;5615;49.304;10.576;2023-02-28T03:28:30;-4.60;99.90
11122;DHT22;5615;49.304;10.576;2023-02-28T03:31:00;-4.60;99.90
11122;DHT22;5615;49.304;10.576;2023-02-28T03:33:33;-4.60;99.90
11122;DHT22;5615;49.304;10.576;2023-02-28T03:36:04;-4.60;99.90
11122;DHT22;5615;49.304;10.576;2023-02-28T03:38:36;-4.60;99.90
11122;DHT22;5615;49.304;10.576;2023-02-28T03:41:09;-4.60;99.90
11122;DHT22;5615;49.304;10.576;2023-02-28T03:43:42;-4.60;99.90
11122;DHT22;5615;49.304;10.576;2023-02-28T03:46:10;-4.60;99.90
11122;DHT22;5615;49.304;10.576;2023-02-28T03:48:42;-4.60;99.90
11122;DHT22;5615;49.304;10.576;2023-02-28T03:51:14;-4.60;99.90
11122;DHT22;5615;49.304;10.576;2023-02-28T03:53:44;-4.60;99.90
11122;DHT22;5615;49.304;10.576;2023-02-28T03:56:14;-4.70;99.90
11122;DHT22;5615;49.304;10.576;2023-02-28T03:58:45;-4.60;99.90
11122;DHT22;5615;49.304;10.576;2023-02-28T04:01:18;-4.60;99.90
11122;DHT22;5615;49.304;10.576;2023-02-28T04:03:47;-4.60;99.90
11122;DHT22;5615;49.304;10.576;2023-02-28T04:06:17;-4.70;99.90
11122;DHT22;5615;49.304;10.576;2023-02-28T04:08:45;-4.70;99.90
11122;DHT22;5615;49.304;10.576;2023-02-28T04:11:18;-4.60;99.90
11122;DHT22;5615;49.304;10.576;2023-02-28T04:13:46;-4.60;99.90
11122;DHT22;5615;49.304;10.576;2023-02-28T04:16:13;-4.60;99.90
11122;DHT22;5615;49.304;10.576;2023-02-28T04:18:40;-4.70;99.90
11122;DHT22;5615;49.304;10.576;2023-02-28T04:21:08;-4.70;99.90
11122;DHT22;5615;49.304;10.576;2023-02-28T04:23:37;-4.70;99.90
11122;DHT22;5615;49.304;10.576;2023-02-28T04:26:04;-4.80;99.90
11122;DHT22;5615;49.304;10.576;2023-02-28T04:28:31;-4.70;99.90
11122;DHT22;5615;49.304;10.576;2023-02-28T04:30:59;-4.80;99.90
11122;DHT22;5615;49.304;10.576;2023-02-28T04:33:26;-4.80;99.90
11122;DHT22;5615;49.304;10.576;2023-02-28T04:35:59;-4.80;99.90
11122;DHT22;5615;49.304;10.576;2023-02-28T04:38:26;-4.80;99.90
11122;DHT22;5615;49.304;10.576;2023-02-28T04:40:57;-4.90;99.90
11122;DHT22;5615;49.304;10.576;2023-02-28T04:43:23;-4.90;99.90
11122;DHT22;5615;49.304;10.576;2023-02-28T04:45:50;-4.90;99.90
11122;DHT22;5615;49.304;10.576;2023-02-28T04:48:16;-4.80;99.90
11122;DHT22;5615;49.304;10.576;2023-02-28T04:50:43;-4.90;99.90
11122;DHT22;5615;49.304;10.576;2023-02-28T04:53:09;-4.90;99.90
11122;DHT22;5615;49.304;10.576;2023-02-28T04:55:36;-4.90;99.90
11122;DHT22;5615;49.304;10.576;2023-02-28T04:58:06;-4.90;99.90
11122;DHT22;5615;49.304;10.576;2023-02-28T05:00:33;-4.90;99.90
11122;DHT22;5615;49.304;10.576;2023-02-28T05:03:00;-4.90;99.90
11122;DHT22;5615;49.304;10.576;2023-02-28T05:05:26;-4.90;99.90
11122;DHT22;5615;49.304;10.576;2023-02-28T05:07:53;-4.90;99.90
11122;DHT22;5615;49.304;10.576;2023-02-28T05:10:21;-4.90;99.90
11122;DHT22;5615;49.304;10.576;2023-02-28T05:12:47;-5.00;99.90
11122;DHT22;5615;49.304;10.576;2023-02-28T05:15:16;-4.90;99.90
11122;DHT22;5615;49.304;10.576;2023-02-28T05:17:43;-4.80;99.90
11122;DHT22;5615;49.304;10.576;2023-02-28T05:20:10;-4.80;99.90
11122;DHT22;5615;49.304;10.576;2023-02-28T05:22:39;-4.80;99.90
11122;DHT22;5615;49.304;10.576;2023-02-28T05:25:06;-4.80;99.90
11122;DHT22;5615;49.304;10.576;2023-02-28T05:27:33;-4.80;99.90
11122;DHT22;5615;49.304;10.576;2023-02-28T05:29:59;-4.80;99.90
11122;DHT22;5615;49.304;10.576;2023-02-28T05:32:30;-4.70;99.90
11122;DHT22;5615;49.304;10.576;2023-02-28T05:34:56;-4.70;99.90
11122;DHT22;5615;49.304;10.576;2023-02-28T05:37:23;-4.70;99.90
11122;DHT22;5615;49.304;10.576;2023-02-28T05:39:49;-4.60;99.90
11122;DHT22;5615;49.304;10.576;2023-02-28T05:42:16;-4.60;99.90
11122;DHT22;5615;49.304;10.576;2023-02-28T05:44:42;-4.60;99.90
11122;DHT22;5615;49.304;10.576;2023-02-28T05:47:09;-4.60;99.90
11122;DHT22;5615;49.304;10.576;2023-02-28T05:49:37;-4.50;99.90
11122;DHT22;5615;49.304;10.576;2023-02-28T05:52:04;-4.50;99.90
11122;DHT22;5615;49.304;10.576;2023-02-28T05:54:30;-4.50;99.90
11122;DHT22;5615;49.304;10.576;2023-02-28T05:56:57;-4.50;99.90
11122;DHT22;5615;49.304;10.576;2023-02-28T05:59:24;-4.50;99.90
11122;DHT22;5615;49.304;10.576;2023-02-28T06:01:50;-4.50;99.90
11122;DHT22;5615;49.304;10.576;2023-02-28T06:04:20;-4.40;99.90
11122;DHT22;5615;49.304;10.576;2023-02-28T06:06:49;-4.40;99.90
11122;DHT22;5615;49.304;10.576;2023-02-28T06:09:16;-4.30;99.90
11122;DHT22;5615;49.304;10.576;2023-02-28T06:11:43;-4.30;99.90
11122;DHT22;5615;49.304;10.576;2023-02-28T06:14:15;-4.30;99.90
11122;DHT22;5615;49.304;10.576;2023-02-28T06:16:41;-4.30;99.90
11122;DHT22;5615;49.304;10.576;2023-02-28T06:19:09;-4.10;99.90
11122;DHT22;5615;49.304;10.576;2023-02-28T06:21:36;-4.10;99.90
11122;DHT22;5615;49.304;10.576;2023-02-28T06:24:05;-4.00;99.90
11122;DHT22;5615;49.304;10.576;2023-02-28T06:26:31;-4.00;99.90
11122;DHT22;5615;49.304;10.576;2023-02-28T06:28:58;-3.90;99.90
11122;DHT22;5615;49.304;10.576;2023-02-28T06:31:26;-3.90;99.90
11122;DHT22;5615;49.304;10.576;2023-02-28T06:33:55;-3.80;99.90
11122;DHT22;5615;49.304;10.576;2023-02-28T06:36:21;-3.70;99.90
11122;DHT22;5615;49.304;10.576;2023-02-28T06:38:48;-3.70;99.90
11122;DHT22;5615;49.304;10.576;2023-02-28T06:41:21;-3.60;99.90
11122;DHT22;5615;49.304;10.576;2023-02-28T06:43:48;-3.50;99.90
11122;DHT22;5615;49.304;10.576;2023-02-28T06:46:14;-3.40;99.90
11122;DHT22;5615;49.304;10.576;2023-02-28T06:48:43;-3.40;99.90
11122;DHT22;5615;49.304;10.576;2023-02-28T06:51:11;-3.40;99.90
11122;DHT22;5615;49.304;10.576;2023-02-28T06:53:38;-3.30;99.90
11122;DHT22;5615;49.304;10.576;2023-02-28T06:56:06;-3.30;99.90
11122;DHT22;5615;49.304;10.576;2023-02-28T06:58:35;-3.20;99.90
11122;DHT22;5615;49.304;10.576;2023-02-28T07:01:03;-3.20;99.90
11122;DHT22;5615;49.304;10.576;2023-02-28T07:03:30;-3.10;99.90
11122;DHT22;5615;49.304;10.576;2023-02-28T07:05:56;-3.00;99.90
11122;DHT22;5615;49.304;10.576;2023-02-28T07:08:24;-3.00;99.90
11122;DHT22;5615;49.304;10.576;2023-02-28T07:10:52;-3.00;99.90
11122;DHT22;5615;49.304;10.576;2023-02-28T07:13:19;-3.00;99.90
11122;DHT22;5615;49.304;10.576;2023-02-28T07:15:54;-2.90;99.90
11122;DHT22;5615;49.304;10.576;2023-02-28T07:18:21;-2.90;99.90
11122;DHT22;5615;49.304;10.576;2023-02-28T07:20:47;-2.90;99.90
11122;DHT22;5615;49.304;10.576;2023-02-28T07:23:14;-2.80;99.90
11122;DHT22;5615;49.304;10.576;2023-02-28T07:25:40;-2.70;99.90
11122;DHT22;5615;49.304;10.576;2023-02-28T07:28:07;-2.70;99.90
11122;DHT22;5615;49.304;10.576;2023-02-28T07:30:34;-2.60;99.90
11122;DHT22;5615;49.304;10.576;2023-02-28T07:33:02;-2.60;99.90
11122;DHT22;5615;49.304;10.576;2023-02-28T07:35:29;-2.50;99.90
11122;DHT22;5615;49.304;10.576;2023-02-28T07:37:57;-2.40;99.90
11122;DHT22;5615;49.304;10.576;2023-02-28T07:40:24;-2.40;99.90
11122;DHT22;5615;49.304;10.576;2023-02-28T07:42:50;-2.30;99.90
11122;DHT22;5615;49.304;10.576;2023-02-28T07:45:17;-2.30;99.90
11122;DHT22;5615;49.304;10.576;2023-02-28T07:47:45;-2.20;99.90
11122;DHT22;5615;49.304;10.576;2023-02-28T07:50:14;-2.10;99.90
11122;DHT22;5615;49.304;10.576;2023-02-28T07:52:41;-2.00;99.90
11122;DHT22;5615;49.304;10.576;2023-02-28T07:55:09;-1.90;99.90
11122;DHT22;5615;49.304;10.576;2023-02-28T07:57:36;-1.80;99.90
11122;DHT22;5615;49.304;10.576;2023-02-28T08:00:03;-1.70;99.90
11122;DHT22;5615;49.304;10.576;2023-02-28T08:02:30;-1.60;99.90
11122;DHT22;5615;49.304;10.576;2023-02-28T08:04:57;-1.50;99.90
11122;DHT22;5615;49.304;10.576;2023-02-28T08:07:25;-1.30;99.90
11122;DHT22;5615;49.304;10.576;2023-02-28T08:09:51;-1.20;99.90
11122;DHT22;5615;49.304;10.576;2023-02-28T08:12:18;-1.10;99.90
11122;DHT22;5615;49.304;10.576;2023-02-28T08:14:45;-1.00;99.90
11122;DHT22;5615;49.304;10.576;2023-02-28T08:17:12;-0.80;99.90
11122;DHT22;5615;49.304;10.576;2023-02-28T08:19:38;-0.60;99.90
11122;DHT22;5615;49.304;10.576;2023-02-28T08:22:05;-0.40;99.90
11122;DHT22;5615;49.304;10.576;2023-02-28T08:24:33;-0.30;99.90
11122;DHT22;5615;49.304;10.576;2023-02-28T08:26:59;0.00;99.90
11122;DHT22;5615;49.304;10.576;2023-02-28T08:29:26;0.10;99.90
11122;DHT22;5615;49.304;10.576;2023-02-28T08:31:52;0.30;99.90
11122;DHT22;5615;49.304;10.576;2023-02-28T08:34:19;0.50;99.90
11122;DHT22;5615;49.304;10.576;2023-02-28T08:36:46;0.60;99.90
11122;DHT22;5615;49.304;10.576;2023-02-28T08:39:12;0.80;99.90
11122;DHT22;5615;49.304;10.576;2023-02-28T08:41:42;0.70;99.90
11122;DHT22;5615;49.304;10.576;2023-02-28T08:44:09;0.90;99.90
11122;DHT22;5615;49.304;10.576;2023-02-28T08:46:36;1.10;99.90
11122;DHT22;5615;49.304;10.576;2023-02-28T08:49:02;1.20;99.90
11122;DHT22;5615;49.304;10.576;2023-02-28T08:51:29;1.40;99.90
11122;DHT22;5615;49.304;10.576;2023-02-28T08:53:58;1.50;99.90
11122;DHT22;5615;49.304;10.576;2023-02-28T08:56:26;1.50;99.90
11122;DHT22;5615;49.304;10.576;2023-02-28T08:58:56;1.50;99.90
11122;DHT22;5615;49.304;10.576;2023-02-28T09:01:25;1.40;99.90
11122;DHT22;5615;49.304;10.576;2023-02-28T09:03:54;1.60;99.90
11122;DHT22;5615;49.304;10.576;2023-02-28T09:06:22;1.60;99.90
11122;DHT22;5615;49.304;10.576;2023-02-28T09:08:49;1.60;99.90
11122;DHT22;5615;49.304;10.576;2023-02-28T09:11:16;1.70;99.90
11122;DHT22;5615;49.304;10.576;2023-02-28T09:13:44;1.80;99.90
11122;DHT22;5615;49.304;10.576;2023-02-28T09:16:14;2.00;99.90
11122;DHT22;5615;49.304;10.576;2023-02-28T09:18:42;2.30;99.90
11122;DHT22;5615;49.304;10.576;2023-02-28T09:21:10;2.60;99.90
11122;DHT22;5615;49.304;10.576;2023-02-28T09:23:39;3.00;99.90
11122;DHT22;5615;49.304;10.576;2023-02-28T09:26:06;2.90;99.90
11122;DHT22;5615;49.304;10.576;2023-02-28T09:28:33;2.90;99.90
11122;DHT22;5615;49.304;10.576;2023-02-28T09:31:00;3.20;99.90
11122;DHT22;5615;49.304;10.576;2023-02-28T09:33:29;3.60;99.90
11122;DHT22;5615;49.304;10.576;2023-02-28T09:36:00;3.90;99.90
11122;DHT22;5615;49.304;10.576;2023-02-28T09:38:27;4.00;99.90
11122;DHT22;5615;49.304;10.576;2023-02-28T09:40:57;3.90;99.90
11122;DHT22;5615;49.304;10.576;2023-02-28T09:43:27;4.10;99.90
11122;DHT22;5615;49.304;10.576;2023-02-28T09:45:59;4.40;99.90
11122;DHT22;5615;49.304;10.576;2023-02-28T09:48:32;4.30;99.90
11122;DHT22;5615;49.304;10.576;2023-02-28T09:51:03;4.10;99.30
11122;DHT22;5615;49.304;10.576;2023-02-28T09:53:32;4.10;99.70
11122;DHT22;5615;49.304;10.576;2023-02-28T09:56:04;3.90;99.90
11122;DHT22;5615;49.304;10.576;2023-02-28T09:58:36;4.00;99.60
11122;DHT22;5615;49.304;10.576;2023-02-28T10:01:08;4.20;99.30
11122;DHT22;5615;49.304;10.576;2023-02-28T10:03:39;4.30;99.00
11122;DHT22;5615;49.304;10.576;2023-02-28T10:06:11;4.30;98.30
11122;DHT22;5615;49.304;10.576;2023-02-28T10:08:42;4.40;98.00
11122;DHT22;5615;49.304;10.576;2023-02-28T10:11:15;4.50;97.70
11122;DHT22;5615;49.304;10.576;2023-02-28T10:13:51;4.70;97.40
11122;DHT22;5615;49.304;10.576;2023-02-28T10:16:23;5.00;96.70
11122;DHT22;5615;49.304;10.576;2023-02-28T10:18:55;5.10;95.60
11122;DHT22;5615;49.304;10.576;2023-02-28T10:21:26;5.40;95.10
11122;DHT22;5615;49.304;10.576;2023-02-28T10:23:59;5.60;94.50
11122;DHT22;5615;49.304;10.576;2023-02-28T10:26:29;5.90;94.00
11122;DHT22;5615;49.304;10.576;2023-02-28T10:28:57;5.90;92.60
11122;DHT22;5615;49.304;10.576;2023-02-28T10:31:24;6.10;92.20
11122;DHT22;5615;49.304;10.576;2023-02-28T10:33:50;5.70;90.90
11122;DHT22;5615;49.304;10.576;2023-02-28T10:36:20;5.40;91.90
11122;DHT22;5615;49.304;10.576;2023-02-28T10:38:47;5.00;92.10
11122;DHT22;5615;49.304;10.576;2023-02-28T10:41:17;5.20;91.70
11122;DHT22;5615;49.304;10.576;2023-02-28T10:43:53;5.80;91.50
11122;DHT22;5615;49.304;10.576;2023-02-28T10:46:22;6.70;89.60
11122;DHT22;5615;49.304;10.576;2023-02-28T10:49:01;6.30;88.50
11122;DHT22;5615;49.304;10.576;2023-02-28T10:51:36;5.90;88.00
11122;DHT22;5615;49.304;10.576;2023-02-28T10:54:04;7.10;89.50
11122;DHT22;5615;49.304;10.576;2023-02-28T10:56:31;6.70;86.20
11122;DHT22;5615;49.304;10.576;2023-02-28T10:59:00;7.00;88.60
11122;DHT22;5615;49.304;10.576;2023-02-28T11:01:36;8.10;81.90
11122;DHT22;5615;49.304;10.576;2023-02-28T11:04:03;7.60;78.60
11122;DHT22;5615;49.304;10.576;2023-02-28T11:06:43;7.30;76.70
11122;DHT22;5615;49.304;10.576;2023-02-28T11:09:18;7.40;76.90
11122;DHT22;5615;49.304;10.576;2023-02-28T11:11:47;9.00;74.60
11122;DHT22;5615;49.304;10.576;2023-02-28T11:14:20;9.40;70.40
11122;DHT22;5615;49.304;10.576;2023-02-28T11:16:47;8.90;69.70
11122;DHT22;5615;49.304;10.576;2023-02-28T11:19:19;8.00;65.30
11122;DHT22;5615;49.304;10.576;2023-02-28T11:21:53;9.50;66.20
11122;DHT22;5615;49.304;10.576;2023-02-28T11:24:24;10.70;59.20
11122;DHT22;5615;49.304;10.576;2023-02-28T11:26:51;11.10;57.20
11122;DHT22;5615;49.304;10.576;2023-02-28T11:29:20;11.90;52.80
11122;DHT22;5615;49.304;10.576;2023-02-28T11:32:02;12.80;49.20
11122;DHT22;5615;49.304;10.576;2023-02-28T11:34:29;13.00;47.50
11122;DHT22;5615;49.304;10.576;2023-02-28T11:36:59;13.90;45.20
11122;DHT22;5615;49.304;10.576;2023-02-28T11:39:30;12.70;41.50
11122;DHT22;5615;49.304;10.576;2023-02-28T11:42:11;11.60;42.20
11122;DHT22;5615;49.304;10.576;2023-02-28T11:44:52;12.00;40.60
11122;DHT22;5615;49.304;10.576;2023-02-28T11:47:32;11.60;41.70
11122;DHT22;5615;49.304;10.576;2023-02-28T11:50:11;11.20;39.80
11122;DHT22;5615;49.304;10.576;2023-02-28T11:52:47;10.10;40.90
11122;DHT22;5615;49.304;10.576;2023-02-28T11:55:18;9.30;42.90
11122;DHT22;5615;49.304;10.576;2023-02-28T11:57:59;10.50;44.70
11122;DHT22;5615;49.304;10.576;2023-02-28T12:00:38;12.60;42.20
11122;DHT22;5615;49.304;10.576;2023-02-28T12:03:15;13.90;40.50
11122;DHT22;5615;49.304;10.576;2023-02-28T12:05:46;14.30;36.50
11122;DHT22;5615;49.304;10.576;2023-02-28T12:08:32;14.30;35.40
11122;DHT22;5615;49.304;10.576;2023-02-28T12:11:11;13.90;35.70
11122;DHT22;5615;49.304;10.576;2023-02-28T12:13:48;14.30;34.70
11122;DHT22;5615;49.304;10.576;2023-02-28T12:16:34;15.20;34.40
11122;DHT22;5615;49.304;10.576;2023-02-28T12:19:13;15.10;31.60
11122;DHT22;5615;49.304;10.576;2023-02-28T12:21:54;14.80;31.70
11122;DHT22;5615;49.304;10.576;2023-02-28T12:24:39;14.80;31.80
11122;DHT22;5615;49.304;10.576;2023-02-28T12:27:13;14.30;31.00
11122;DHT22;5615;49.304;10.576;2023-02-28T12:29:46;14.20;29.90
11122;DHT22;5615;49.304;10.576;2023-02-28T12:32:18;14.10;30.00
11122;DHT22;5615;49.304;10.576;2023-02-28T12:34:49;14.40;31.00
11122;DHT22;5615;49.304;10.576;2023-02-28T12:37:21;15.70;30.10
11122;DHT22;5615;49.304;10.576;2023-02-28T12:39:54;16.20;29.20
11122;DHT22;5615;49.304;10.576;2023-02-28T12:42:24;17.60;28.70
11122;DHT22;5615;49.304;10.576;2023-02-28T12:44:56;17.30;26.80
11122;DHT22;5615;49.304;10.576;2023-02-28T12:47:24;17.50;26.20
11122;DHT22;5615;49.304;10.576;2023-02-28T12:49:54;17.50;25.70
11122;DHT22;5615;49.304;10.576;2023-02-28T12:52:30;17.30;25.20
11122;DHT22;5615;49.304;10.576;2023-02-28T12:55:04;16.00;25.20
11122;DHT22;5615;49.304;10.576;2023-02-28T12:57:37;16.20;25.30
11122;DHT22;5615;49.304;10.576;2023-02-28T13:00:12;16.70;25.00
11122;DHT22;5615;49.304;10.576;2023-02-28T13:03:00;16.20;25.20
11122;DHT22;5615;49.304;10.576;2023-02-28T13:05:50;17.80;24.60
11122;DHT22;5615;49.304;10.576;2023-02-28T13:08:55;17.90;23.70
11122;DHT22;5615;49.304;10.576;2023-02-28T13:11:28;18.70;23.20
11122;DHT22;5615;49.304;10.576;2023-02-28T13:14:00;18.40;23.60
11122;DHT22;5615;49.304;10.576;2023-02-28T13:16:28;19.50;22.30
11122;DHT22;5615;49.304;10.576;2023-02-28T13:19:09;18.60;21.10
11122;DHT22;5615;49.304;10.576;2023-02-28T13:21:43;20.10;21.30
11122;DHT22;5615;49.304;10.576;2023-02-28T13:24:11;19.90;20.40
11122;DHT22;5615;49.304;10.576;2023-02-28T13:33:24;20.20;18.90
11122;DHT22;5615;49.304;10.576;2023-02-28T13:36:07;20.10;19.00
11122;DHT22;5615;49.304;10.576;2023-02-28T13:38:40;20.60;18.90
11122;DHT22;5615;49.304;10.576;2023-02-28T13:44:10;21.30;17.30
11122;DHT22;5615;49.304;10.576;2023-02-28T13:50:16;21.30;16.80
11122;DHT22;5615;49.304;10.576;2023-02-28T13:52:51;22.10;16.50
11122;DHT22;5615;49.304;10.576;2023-02-28T13:55:27;22.90;15.80
11122;DHT22;5615;49.304;10.576;2023-02-28T13:58:09;22.80;15.90
11122;DHT22;5615;49.304;10.576;2023-02-28T14:00:50;22.40;15.70
11122;DHT22;5615;49.304;10.576;2023-02-28T14:03:32;22.40;15.00
11122;DHT22;5615;49.304;10.576;2023-02-28T14:06:15;22.00;14.90
11122;DHT22;5615;49.304;10.576;2023-02-28T14:08:50;22.20;14.80
11122;DHT22;5615;49.304;10.576;2023-02-28T14:11:27;21.90;14.90
11122;DHT22;5615;49.304;10.576;2023-02-28T14:13:54;21.60;14.70
11122;DHT22;5615;49.304;10.576;2023-02-28T14:16:22;22.20;14.90
11122;DHT22;5615;49.304;10.576;2023-02-28T14:18:51;22.70;14.00
11122;DHT22;5615;49.304;10.576;2023-02-28T14:21:24;22.50;13.70
11122;DHT22;5615;49.304;10.576;2023-02-28T14:24:20;22.90;13.80
11122;DHT22;5615;49.304;10.576;2023-02-28T14:27:15;22.00;13.70
11122;DHT22;5615;49.304;10.576;2023-02-28T14:30:02;22.30;13.60
11122;DHT22;5615;49.304;10.576;2023-02-28T14:32:35;22.40;13.00
11122;DHT22;5615;49.304;10.576;2023-02-28T14:35:16;22.60;13.00
11122;DHT22;5615;49.304;10.576;2023-02-28T14:37:48;22.20;13.20
11122;DHT22;5615;49.304;10.576;2023-02-28T14:40:17;22.50;12.90
11122;DHT22;5615;49.304;10.576;2023-02-28T14:42:48;22.50;12.70
11122;DHT22;5615;49.304;10.576;2023-02-28T14:45:22;22.20;12.90
11122;DHT22;5615;49.304;10.576;2023-02-28T14:47:49;21.90;13.20
11122;DHT22;5615;49.304;10.576;2023-02-28T14:50:21;21.90;13.20
11122;DHT22;5615;49.304;10.576;2023-02-28T14:52:51;22.10;12.70
11122;DHT22;5615;49.304;10.576;2023-02-28T14:55:20;20.70;13.40
11122;DHT22;5615;49.304;10.576;2023-02-28T14:57:54;21.40;13.50
11122;DHT22;5615;49.304;10.576;2023-02-28T15:00:23;20.90;12.80
11122;DHT22;5615;49.304;10.576;2023-02-28T15:02:50;20.90;13.00
11122;DHT22;5615;49.304;10.576;2023-02-28T15:05:27;19.60;13.10
11122;DHT22;5615;49.304;10.576;2023-02-28T15:08:11;19.40;13.90
11122;DHT22;5615;49.304;10.576;2023-02-28T15:10:39;19.20;14.10
11122;DHT22;5615;49.304;10.576;2023-02-28T15:13:12;18.80;14.40
11122;DHT22;5615;49.304;10.576;2023-02-28T15:15:45;19.60;13.90
11122;DHT22;5615;49.304;10.576;2023-02-28T15:18:22;19.40;13.90
11122;DHT22;5615;49.304;10.576;2023-02-28T15:20:50;18.70;13.90
11122;DHT22;5615;49.304;10.576;2023-02-28T15:23:19;19.20;14.30
11122;DHT22;5615;49.304;10.576;2023-02-28T15:25:48;19.70;14.20
11122;DHT22;5615;49.304;10.576;2023-02-28T15:28:19;19.10;14.10
11122;DHT22;5615;49.304;10.576;2023-02-28T15:30:56;18.10;14.70
11122;DHT22;5615;49.304;10.576;2023-02-28T15:33:24;17.50;15.20
11122;DHT22;5615;49.304;10.576;2023-02-28T15:36:02;17.20;15.40
11122;DHT22;5615;49.304;10.576;2023-02-28T15:38:34;16.60;15.90
11122;DHT22;5615;49.304;10.576;2023-02-28T15:41:01;16.00;16.30
11122;DHT22;5615;49.304;10.576;2023-02-28T15:43:29;15.00;17.40
11122;DHT22;5615;49.304;10.576;2023-02-28T15:45:58;14.90;17.60
11122;DHT22;5615;49.304;10.576;2023-02-28T15:48:28;14.40;17.80
11122;DHT22;5615;49.304;10.576;2023-02-28T15:50:57;13.70;18.70
11122;DHT22;5615;49.304;10.576;2023-02-28T15:53:26;13.60;19.00
11122;DHT22;5615;49.304;10.576;2023-02-28T15:55:59;13.70;19.40
11122;DHT22;5615;49.304;10.576;2023-02-28T15:58:27;14.30;18.80
11122;DHT22;5615;49.304;10.576;2023-02-28T16:01:17;14.10;18.90
11122;DHT22;5615;49.304;10.576;2023-02-28T16:03:47;13.60;19.60
11122;DHT22;5615;49.304;10.576;2023-02-28T16:06:41;13.00;20.00
11122;DHT22;5615;49.304;10.576;2023-02-28T16:09:11;11.30;21.30
11122;DHT22;5615;49.304;10.576;2023-02-28T16:11:42;10.20;23.10
11122;DHT22;5615;49.304;10.576;2023-02-28T16:14:15;10.10;24.00